Time;durP1;ratioP1;P1;durP2;ratioP2;P2;SDS_P1;SDS_P2;PMS_P1;PMS_P2;Temp;Humidity;BMP_temperature;BMP_pressure;BME280_temperature;BME280_humidity;BME280_pressure;Samples;Min_cycle;Max_cycle;Signal;HPM_P1;HPM_P2
2021/06/01 00:00:10;;;;;;;7.30;5.70;;;16.60;75.20;;;;;;5054070;28;20420;-90
2021/06/01 00:02:36;;;;;;;7.87;6.00;;;16.60;75.40;;;;;;5055255;28;20407;-91
2021/06/01 00:05:07;;;;;;;6.40;5.80;;;16.60;77.00;;;;;;5055586;28;20764;-90
2021/06/01 00:07:34;;;;;;;6.40;4.30;;;16.60;77.20;;;;;;5054980;28;20759;-91
2021/06/01 00:10:00;;;;;;;5.33;4.20;;;16.70;77.60;;;;;;5055499;28;20418;-90
2021/06/01 00:12:28;;;;;;;5.00;4.30;;;16.60;78.40;;;;;;5037826;28;20406;-91
2021/06/01 00:14:54;;;;;;;6.07;5.17;;;16.60;78.90;;;;;;5037260;28;20407;-91
2021/06/01 00:17:20;;;;;;;6.80;5.50;;;16.60;78.90;;;;;;5055356;28;20474;-91
2021/06/01 00:19:45;;;;;;;6.10;5.60;;;16.60;79.30;;;;;;5037212;28;20439;-91
2021/06/01 00:22:11;;;;;;;5.40;5.00;;;16.60;79.30;;;;;;5055472;28;20188;-91
2021/06/01 00:24:37;;;;;;;9.00;7.23;;;16.50;80.70;;;;;;5037240;28;20523;-91
2021/06/01 00:27:03;;;;;;;8.50;5.63;;;16.40;80.60;;;;;;5037509;28;20184;-92
2021/06/01 00:29:29;;;;;;;7.70;7.03;;;16.40;81.30;;;;;;5055299;28;20172;-91
2021/06/01 00:31:55;;;;;;;6.57;5.80;;;16.30;81.60;;;;;;5054758;28;20434;-91
2021/06/01 00:34:23;;;;;;;7.17;6.57;;;16.30;82.10;;;;;;5055125;28;20194;-90
2021/06/01 00:36:49;;;;;;;6.50;5.57;;;16.20;82.10;;;;;;5054609;28;20229;-91
2021/06/01 00:39:14;;;;;;;5.17;4.67;;;16.10;81.70;;;;;;5055697;28;20909;-91
2021/06/01 00:41:41;;;;;;;7.37;5.40;;;16.10;82.70;;;;;;5058323;28;20182;-91
2021/06/01 00:44:07;;;;;;;5.30;4.80;;;16.10;83.30;;;;;;5056648;28;20172;-91
2021/06/01 00:46:33;;;;;;;6.43;5.90;;;16.00;83.30;;;;;;5057520;28;20925;-90
2021/06/01 00:48:59;;;;;;;6.63;5.57;;;16.00;82.90;;;;;;5037307;28;20410;-90
2021/06/01 00:51:25;;;;;;;5.93;5.43;;;15.90;83.80;;;;;;5037003;28;20418;-90
2021/06/01 00:53:53;;;;;;;5.90;5.30;;;15.90;83.80;;;;;;5053902;28;20493;-89
2021/06/01 00:56:19;;;;;;;7.43;6.73;;;15.80;84.90;;;;;;5054588;28;20633;-89
2021/06/01 00:58:47;;;;;;;5.50;5.10;;;15.80;85.00;;;;;;5036289;28;20180;-90
2021/06/01 01:01:19;;;;;;;6.03;5.43;;;15.80;86.00;;;;;;5036748;28;20207;-89
2021/06/01 01:03:45;;;;;;;6.47;5.40;;;15.70;86.70;;;;;;5054318;28;20413;-89
2021/06/01 01:06:46;;;;;;;6.83;5.07;;;15.70;86.20;;;;;;5036620;28;20901;-90
2021/06/01 01:09:16;;;;;;;6.37;5.63;;;15.60;86.80;;;;;;5054647;28;20416;-90
2021/06/01 01:11:57;;;;;;;5.87;5.30;;;15.60;87.90;;;;;;5034988;28;20489;-90
2021/06/01 01:14:30;;;;;;;9.63;5.80;;;15.60;88.20;;;;;;5054372;28;20441;-90
2021/06/01 01:17:11;;;;;;;6.63;5.97;;;15.50;89.00;;;;;;5035586;28;20475;-90
2021/06/01 01:20:05;;;;;;;8.00;7.30;;;15.50;89.50;;;;;;5053512;28;20432;-90
2021/06/01 01:22:33;;;;;;;7.17;5.77;;;15.50;90.00;;;;;;5054359;28;20432;-90
2021/06/01 01:25:05;;;;;;;7.40;6.80;;;15.40;90.20;;;;;;5035939;28;20413;-90
2021/06/01 01:27:49;;;;;;;8.10;5.10;;;15.40;90.30;;;;;;5054097;28;20405;-90
2021/06/01 01:30:17;;;;;;;6.67;5.27;;;15.40;90.50;;;;;;5053971;28;20447;-90
2021/06/01 01:33:14;;;;;;;7.50;6.40;;;15.30;90.50;;;;;;5053690;28;20413;-90
2021/06/01 01:35:43;;;;;;;7.13;5.70;;;15.20;90.90;;;;;;5037426;28;20416;-91
2021/06/01 01:38:09;;;;;;;7.43;6.20;;;15.20;90.90;;;;;;5053642;28;20823;-90
2021/06/01 01:40:37;;;;;;;8.03;7.33;;;15.20;91.00;;;;;;5035928;28;20416;-90
2021/06/01 01:43:09;;;;;;;8.03;5.93;;;15.10;91.20;;;;;;5036153;28;20490;-89
2021/06/01 01:45:37;;;;;;;8.03;7.07;;;15.10;91.40;;;;;;5053680;28;20408;-90
2021/06/01 01:51:11;;;;;;;7.47;6.80;;;15.10;91.50;;;;;;5053330;28;20883;-90
2021/06/01 01:53:58;;;;;;;6.03;5.43;;;15.10;91.80;;;;;;5035847;28;20412;-90
2021/06/01 01:56:37;;;;;;;6.33;5.73;;;15.10;91.40;;;;;;5053400;28;20889;-90
2021/06/01 01:59:09;;;;;;;5.00;4.50;;;15.00;91.50;;;;;;5036233;28;20423;-90
2021/06/01 02:01:36;;;;;;;6.13;4.87;;;15.00;91.40;;;;;;5053615;28;20408;-90
2021/06/01 02:04:03;;;;;;;5.83;4.90;;;15.00;91.70;;;;;;5035207;28;20486;-90
2021/06/01 02:06:29;;;;;;;6.90;6.13;;;15.00;91.80;;;;;;5035703;28;20412;-91
2021/06/01 02:08:55;;;;;;;8.57;6.20;;;15.00;92.10;;;;;;5034886;28;20412;-90
2021/06/01 02:11:21;;;;;;;6.40;5.80;;;15.00;92.10;;;;;;5035596;28;20456;-91
2021/06/01 02:13:54;;;;;;;7.67;6.27;;;15.00;92.00;;;;;;5035083;28;20817;-90
2021/06/01 02:16:21;;;;;;;8.73;5.80;;;15.00;92.00;;;;;;5053029;28;20528;-90
2021/06/01 02:18:48;;;;;;;6.17;5.67;;;15.00;91.80;;;;;;5052611;28;20470;-91
2021/06/01 02:21:33;;;;;;;5.77;5.33;;;15.00;91.70;;;;;;5052966;28;20424;-90
2021/06/01 02:24:07;;;;;;;6.33;5.20;;;14.90;91.60;;;;;;5033829;28;20442;-89
2021/06/01 02:26:54;;;;;;;7.73;7.03;;;14.90;91.80;;;;;;5035391;28;20420;-89
2021/06/01 02:29:39;;;;;;;6.00;5.50;;;14.80;91.70;;;;;;5052753;28;20967;-90
2021/06/01 02:32:06;;;;;;;7.30;6.60;;;14.80;91.80;;;;;;5052810;28;20813;-89
2021/06/01 02:34:35;;;;;;;8.53;6.03;;;14.70;92.00;;;;;;5035048;28;20950;-90
2021/06/01 02:37:01;;;;;;;7.03;6.53;;;14.70;92.20;;;;;;5034544;28;20806;-89
2021/06/01 02:39:29;;;;;;;6.07;5.47;;;14.60;91.90;;;;;;5035241;28;20969;-89
2021/06/01 02:41:54;;;;;;;6.30;5.80;;;14.60;92.20;;;;;;5052551;28;20762;-90
2021/06/01 02:44:20;;;;;;;8.47;6.27;;;14.50;92.30;;;;;;5035309;28;20418;-92
2021/06/01 02:46:49;;;;;;;7.37;6.80;;;14.50;92.40;;;;;;5034777;28;20427;-92
2021/06/01 02:49:17;;;;;;;6.07;5.63;;;14.50;92.60;;;;;;5051874;28;20184;-92
2021/06/01 02:51:43;;;;;;;7.10;6.50;;;14.40;92.60;;;;;;5052409;28;20438;-92
2021/06/01 02:54:10;;;;;;;7.00;6.17;;;14.40;92.60;;;;;;5053127;28;20880;-92
2021/06/01 02:56:36;;;;;;;8.30;7.70;;;14.40;92.70;;;;;;5034891;28;20416;-91
2021/06/01 02:59:07;;;;;;;8.20;7.60;;;14.30;92.70;;;;;;5034644;28;20844;-91
2021/06/01 03:01:34;;;;;;;8.33;7.73;;;14.30;92.90;;;;;;5052827;28;20402;-91
2021/06/01 03:03:59;;;;;;;6.27;5.73;;;14.30;93.00;;;;;;5034236;28;20429;-91
2021/06/01 03:06:27;;;;;;;10.03;9.30;;;14.30;92.90;;;;;;5034781;28;20423;-90
2021/06/01 03:08:53;;;;;;;7.40;6.70;;;14.30;93.00;;;;;;5034303;28;20403;-90
2021/06/01 03:11:20;;;;;;;9.33;8.83;;;14.30;92.90;;;;;;5052302;28;20499;-91
2021/06/01 03:13:47;;;;;;;7.03;6.43;;;14.30;93.00;;;;;;5052063;28;20185;-91
2021/06/01 03:16:13;;;;;;;9.10;8.50;;;14.20;93.20;;;;;;5052268;28;20840;-91
2021/06/01 03:18:40;;;;;;;7.97;7.37;;;14.30;93.20;;;;;;5034592;28;20452;-91
2021/06/01 03:21:06;;;;;;;6.50;5.70;;;14.30;93.10;;;;;;5052009;28;20442;-90
2021/06/01 03:23:31;;;;;;;9.27;7.63;;;14.20;92.90;;;;;;5052419;28;20418;-90
2021/06/01 03:25:58;;;;;;;7.43;6.73;;;14.20;92.80;;;;;;5051671;28;20287;-90
2021/06/01 03:28:23;;;;;;;7.27;6.60;;;14.20;92.80;;;;;;5034669;28;20190;-90
2021/06/01 03:30:50;;;;;;;8.10;7.30;;;14.20;93.00;;;;;;5051673;28;20512;-90
2021/06/01 03:33:17;;;;;;;9.13;6.93;;;14.20;93.20;;;;;;5052318;28;20407;-89
2021/06/01 03:35:43;;;;;;;7.80;7.10;;;14.10;92.90;;;;;;5037828;28;20405;-90
2021/06/01 03:38:10;;;;;;;7.93;7.23;;;14.00;93.00;;;;;;5056074;28;20473;-90
2021/06/01 03:40:36;;;;;;;7.50;6.80;;;14.00;93.40;;;;;;5038074;28;20434;-90
2021/06/01 03:43:03;;;;;;;10.70;9.43;;;14.00;93.60;;;;;;5055637;28;20776;-90
2021/06/01 03:45:29;;;;;;;8.03;6.60;;;14.10;93.90;;;;;;5021681;28;20762;-90
2021/06/01 03:47:55;;;;;;;6.93;6.33;;;14.10;94.00;;;;;;5055510;28;20501;-90
2021/06/01 03:50:22;;;;;;;8.27;7.37;;;14.10;94.10;;;;;;5055789;28;20647;-89
2021/06/01 03:52:48;;;;;;;8.57;7.87;;;14.10;94.20;;;;;;5055669;28;20174;-89
2021/06/01 03:55:15;;;;;;;9.90;8.40;;;14.10;94.40;;;;;;5038087;28;20416;-89
2021/06/01 03:57:43;;;;;;;9.60;8.60;;;14.00;94.20;;;;;;5055722;28;21054;-89
2021/06/01 04:00:10;;;;;;;8.43;7.63;;;14.00;94.20;;;;;;5055047;28;20777;-89
2021/06/01 04:02:37;;;;;;;8.53;7.53;;;14.00;94.40;;;;;;5055459;28;20461;-89
2021/06/01 04:05:04;;;;;;;10.47;9.50;;;14.00;94.60;;;;;;5037125;28;20419;-89
2021/06/01 04:07:29;;;;;;;11.20;8.70;;;14.00;94.20;;;;;;5055596;28;20413;-89
2021/06/01 04:09:55;;;;;;;11.10;9.03;;;14.10;94.20;;;;;;5054987;28;20415;-89
2021/06/01 04:12:21;;;;;;;9.30;8.40;;;14.10;94.10;;;;;;5055716;28;20211;-89
2021/06/01 04:14:47;;;;;;;10.30;9.07;;;14.10;94.00;;;;;;5054987;28;20803;-91
2021/06/01 04:17:12;;;;;;;9.93;8.80;;;14.10;94.20;;;;;;5055381;28;20278;-91
2021/06/01 04:19:38;;;;;;;10.23;9.20;;;14.10;94.00;;;;;;5038033;28;20238;-91
2021/06/01 04:22:04;;;;;;;10.10;8.90;;;14.10;94.20;;;;;;5056443;28;20177;-91
2021/06/01 04:24:29;;;;;;;8.33;7.43;;;14.10;94.50;;;;;;5037647;28;20318;-90
2021/06/01 04:27:00;;;;;;;9.10;8.20;;;14.20;94.60;;;;;;5054650;28;20181;-91
2021/06/01 04:29:27;;;;;;;9.80;8.90;;;14.20;94.30;;;;;;5038174;28;20172;-91
2021/06/01 04:31:52;;;;;;;10.33;8.97;;;14.20;94.00;;;;;;5054203;28;20774;-90
2021/06/01 04:34:18;;;;;;;9.80;8.90;;;14.20;94.00;;;;;;5037315;28;20428;-91
2021/06/01 04:36:44;;;;;;;17.27;14.17;;;14.20;94.10;;;;;;5037368;28;20648;-91
2021/06/01 04:39:10;;;;;;;8.53;7.73;;;14.20;93.80;;;;;;5054392;28;20172;-91
2021/06/01 04:41:36;;;;;;;8.07;7.27;;;14.20;93.70;;;;;;5055184;28;20227;-91
2021/06/01 04:44:03;;;;;;;9.93;9.00;;;14.30;93.90;;;;;;5054691;28;20422;-90
2021/06/01 04:46:28;;;;;;;9.90;8.90;;;14.30;93.80;;;;;;5035973;28;20763;-90
2021/06/01 04:48:54;;;;;;;8.13;7.43;;;14.30;93.70;;;;;;5053871;28;20419;-90
2021/06/01 04:51:20;;;;;;;9.07;8.17;;;14.30;93.60;;;;;;5054574;28;20543;-91
2021/06/01 04:53:50;;;;;;;8.67;7.87;;;14.10;93.80;;;;;;5037019;28;20275;-90
2021/06/01 04:56:17;;;;;;;11.57;9.03;;;14.00;94.20;;;;;;5054501;28;20166;-90
2021/06/01 04:58:42;;;;;;;10.77;8.53;;;14.10;94.40;;;;;;5036402;28;20466;-89
2021/06/01 05:01:08;;;;;;;9.80;8.90;;;14.10;94.10;;;;;;5036181;28;20763;-89
2021/06/01 05:03:34;;;;;;;9.10;8.20;;;14.20;94.40;;;;;;5054102;28;20496;-90
2021/06/01 05:06:00;;;;;;;8.53;7.60;;;14.20;94.40;;;;;;5053831;28;20177;-89
2021/06/01 05:08:26;;;;;;;10.10;9.30;;;14.30;94.40;;;;;;5054392;28;20180;-89
2021/06/01 05:10:52;;;;;;;9.53;8.53;;;14.40;94.70;;;;;;5036176;28;20438;-88
2021/06/01 05:13:18;;;;;;;8.70;7.80;;;14.40;94.60;;;;;;5054392;28;20169;-90
2021/06/01 05:15:44;;;;;;;9.97;7.10;;;14.40;94.10;;;;;;5054140;28;20450;-90
2021/06/01 05:18:12;;;;;;;9.43;8.33;;;14.50;93.80;;;;;;5036123;28;20928;-90
2021/06/01 05:20:38;;;;;;;9.67;8.60;;;14.50;93.60;;;;;;5054675;28;21043;-90
2021/06/01 05:23:04;;;;;;;8.93;6.97;;;14.60;93.30;;;;;;5053431;28;20411;-90
2021/06/01 05:25:30;;;;;;;7.40;6.60;;;14.60;92.90;;;;;;5054047;28;20454;-90
2021/06/01 05:27:56;;;;;;;7.27;6.67;;;14.60;93.00;;;;;;5053489;28;20500;-89
2021/06/01 05:30:33;;;;;;;7.80;6.50;;;14.70;93.20;;;;;;5053936;28;20170;-89
2021/06/01 05:35:31;;;;;;;8.53;7.50;;;14.90;93.40;;;;;;5053861;28;20397;-89
2021/06/01 05:37:57;;;;;;;9.30;8.40;;;15.00;93.50;;;;;;5052874;28;20445;-90
2021/06/01 05:40:23;;;;;;;8.27;7.23;;;15.10;93.20;;;;;;5036052;28;20440;-90
2021/06/01 05:42:49;;;;;;;7.67;6.97;;;15.10;93.10;;;;;;5035806;28;20182;-90
2021/06/01 05:45:15;;;;;;;7.00;6.40;;;15.20;92.80;;;;;;5035355;28;20466;-90
2021/06/01 05:47:40;;;;;;;8.43;7.73;;;15.30;92.80;;;;;;5053821;28;20224;-90
2021/06/01 05:50:06;;;;;;;8.50;7.70;;;15.40;92.50;;;;;;5052863;28;20170;-90
2021/06/01 05:52:35;;;;;;;6.63;6.10;;;15.50;92.50;;;;;;5054080;28;20506;-90
2021/06/01 05:55:04;;;;;;;7.10;6.60;;;15.60;92.90;;;;;;5052982;28;20417;-91
2021/06/01 05:57:29;;;;;;;7.20;6.60;;;15.70;92.90;;;;;;5052793;28;20568;-91
2021/06/01 05:59:55;;;;;;;7.73;6.97;;;15.70;92.80;;;;;;5052806;28;20889;-91
2021/06/01 06:02:21;;;;;;;8.20;7.40;;;15.80;92.60;;;;;;5035172;28;20524;-90
2021/06/01 06:04:52;;;;;;;7.90;7.20;;;15.90;92.70;;;;;;5053063;28;20216;-90
2021/06/01 06:07:18;;;;;;;8.70;7.80;;;16.00;92.80;;;;;;5036294;28;20171;-91
2021/06/01 06:09:44;;;;;;;9.80;8.93;;;16.10;92.40;;;;;;5035864;28;20433;-91
2021/06/01 06:12:09;;;;;;;8.60;7.77;;;16.20;92.50;;;;;;5052875;28;20201;-92
2021/06/01 06:14:35;;;;;;;7.90;7.20;;;16.30;92.50;;;;;;5053785;28;20185;-91
2021/06/01 06:17:07;;;;;;;9.90;8.60;;;16.40;92.80;;;;;;5052940;28;20229;-92
2021/06/01 06:19:40;;;;;;;8.03;7.27;;;16.50;92.80;;;;;;5053470;28;20171;-92
2021/06/01 06:22:06;;;;;;;9.53;8.50;;;16.60;92.40;;;;;;5052589;28;20423;-91
2021/06/01 06:24:32;;;;;;;9.30;8.30;;;16.70;92.30;;;;;;5053524;28;20408;-91
2021/06/01 06:26:57;;;;;;;12.23;8.90;;;16.80;91.60;;;;;;5052641;28;20178;-90
2021/06/01 06:29:23;;;;;;;9.53;8.57;;;16.90;91.80;;;;;;5052986;28;20177;-90
2021/06/01 06:31:49;;;;;;;7.40;6.83;;;17.00;92.00;;;;;;5035199;28;20261;-89
2021/06/01 06:34:15;;;;;;;7.33;6.70;;;17.10;91.10;;;;;;5052527;28;20264;-89
2021/06/01 06:36:41;;;;;;;7.57;6.87;;;17.20;88.90;;;;;;5053014;28;20189;-92
2021/06/01 06:39:08;;;;;;;7.10;6.50;;;17.30;88.50;;;;;;5052499;28;20254;-91
2021/06/01 06:41:34;;;;;;;6.53;5.97;;;17.50;88.70;;;;;;5035052;28;20515;-90
2021/06/01 06:44:00;;;;;;;5.97;5.50;;;17.60;88.40;;;;;;5034373;28;20520;-91
2021/06/01 06:46:28;;;;;;;7.10;6.60;;;17.70;88.00;;;;;;5052904;28;20181;-90
2021/06/01 06:48:54;;;;;;;5.30;4.80;;;17.90;90.60;;;;;;5052738;28;20424;-87
2021/06/01 06:51:20;;;;;;;8.17;6.50;;;18.00;92.50;;;;;;5052070;28;20966;-88
2021/06/01 06:53:56;;;;;;;14.47;5.40;;;18.30;90.70;;;;;;5052732;28;20408;-91
2021/06/01 06:56:28;;;;;;;6.10;5.50;;;18.50;90.20;;;;;;5052725;28;20408;-90
2021/06/01 06:58:55;;;;;;;10.80;9.10;;;18.60;86.80;;;;;;5052612;28;20436;-90
2021/06/01 07:01:21;;;;;;;10.73;7.90;;;18.80;90.00;;;;;;5052831;28;20745;-90
2021/06/01 07:03:49;;;;;;;9.27;7.07;;;19.00;87.10;;;;;;5039859;28;20419;-92
2021/06/01 07:06:16;;;;;;;6.77;6.07;;;19.10;83.70;;;;;;5053431;28;20174;-89
2021/06/01 07:08:42;;;;;;;20.50;18.30;;;19.10;82.80;;;;;;5048418;28;20427;-90
2021/06/01 07:11:11;;;;;;;28.10;22.30;;;19.20;84.20;;;;;;5074163;28;20416;-89
2021/06/01 07:13:42;;;;;;;25.60;21.63;;;19.40;85.30;;;;;;5063848;28;20469;-86
2021/06/01 07:16:10;;;;;;;12.70;8.07;;;19.60;84.70;;;;;;5055909;28;20474;-86
2021/06/01 07:18:38;;;;;;;7.33;6.63;;;19.70;84.50;;;;;;5056473;28;20601;-89
2021/06/01 07:21:07;;;;;;;12.40;10.23;;;19.80;81.30;;;;;;5037896;28;20514;-88
2021/06/01 07:23:36;;;;;;;7.40;6.80;;;19.70;79.50;;;;;;5056371;28;20780;-89
2021/06/01 07:26:03;;;;;;;6.20;5.80;;;19.80;81.00;;;;;;5055733;28;20497;-88
2021/06/01 07:28:28;;;;;;;7.07;6.20;;;19.90;80.10;;;;;;5056325;28;20415;-85
2021/06/01 07:30:54;;;;;;;7.03;6.53;;;19.90;80.00;;;;;;5038288;28;20474;-79
2021/06/01 07:33:20;;;;;;;8.37;6.60;;;19.90;79.60;;;;;;5055395;28;20170;-79
2021/06/01 07:35:46;;;;;;;7.27;6.77;;;19.90;79.70;;;;;;5055998;28;20415;-78
2021/06/01 07:38:13;;;;;;;9.73;8.93;;;19.90;79.30;;;;;;5055323;28;20506;-79
2021/06/01 07:40:39;;;;;;;62.13;45.07;;;19.90;78.20;;;;;;5056020;28;20420;-79
2021/06/01 07:43:05;;;;;;;8.20;7.50;;;20.00;80.80;;;;;;5037547;28;20412;-78
2021/06/01 07:45:33;;;;;;;30.70;24.37;;;20.20;79.70;;;;;;5055922;28;20423;-79
2021/06/01 07:47:59;;;;;;;23.80;18.57;;;20.30;79.40;;;;;;5037957;28;20858;-82
2021/06/01 07:50:25;;;;;;;151.13;99.00;;;20.60;80.20;;;;;;5055796;28;20408;-79
2021/06/01 07:52:51;;;;;;;22.80;20.40;;;20.80;80.00;;;;;;5055645;28;20408;-79
2021/06/01 07:55:17;;;;;;;12.27;11.07;;;21.00;77.60;;;;;;5055036;28;20408;-79
2021/06/01 07:57:43;;;;;;;27.90;23.37;;;21.10;77.40;;;;;;5055434;28;20258;-79
2021/06/01 08:00:10;;;;;;;10.33;8.70;;;21.30;77.10;;;;;;5054735;28;20648;-79
2021/06/01 08:02:36;;;;;;;19.67;17.67;;;21.50;74.80;;;;;;5055281;28;20412;-79
2021/06/01 08:05:03;;;;;;;18.37;16.50;;;21.60;74.40;;;;;;5054888;28;20759;-80
2021/06/01 08:07:29;;;;;;;19.53;17.63;;;21.70;73.90;;;;;;5055528;28;20715;-79
2021/06/01 08:09:55;;;;;;;14.57;13.10;;;21.80;74.20;;;;;;5055340;28;20491;-79
2021/06/01 08:12:20;;;;;;;11.67;10.57;;;21.90;72.60;;;;;;5054789;28;20181;-80
2021/06/01 08:14:46;;;;;;;7.30;6.60;;;22.00;72.60;;;;;;5037479;28;20186;-79
2021/06/01 08:17:13;;;;;;;8.87;8.17;;;22.10;72.10;;;;;;5054929;28;20228;-79
2021/06/01 08:19:43;;;;;;;6.37;5.97;;;22.30;71.40;;;;;;5055176;28;20173;-79
2021/06/01 08:24:36;;;;;;;5.47;5.07;;;22.60;69.10;;;;;;5055123;28;20400;-79
2021/06/01 08:27:02;;;;;;;6.40;6.10;;;22.60;66.50;;;;;;5054178;28;20438;-80
2021/06/01 08:29:28;;;;;;;5.63;5.13;;;22.70;67.50;;;;;;5055035;28;20413;-79
2021/06/01 08:31:54;;;;;;;5.63;5.13;;;22.70;66.70;;;;;;5055049;28;20451;-80
2021/06/01 08:34:19;;;;;;;5.33;4.93;;;22.80;65.10;;;;;;5054352;28;20173;-79
2021/06/01 08:36:46;;;;;;;6.90;6.50;;;22.80;61.20;;;;;;5054889;28;20173;-79
2021/06/01 08:39:11;;;;;;;7.10;6.60;;;22.90;63.10;;;;;;5054320;28;20260;-80
2021/06/01 08:41:38;;;;;;;6.63;6.20;;;23.00;61.50;;;;;;5036711;28;20503;-80
2021/06/01 08:44:05;;;;;;;8.80;8.13;;;23.20;62.90;;;;;;5054172;28;20181;-80
2021/06/01 08:46:34;;;;;;;8.47;7.97;;;23.20;63.30;;;;;;5054763;28;20436;-80
2021/06/01 08:49:00;;;;;;;36.07;27.77;;;23.10;61.60;;;;;;5054344;28;20768;-80
2021/06/01 08:51:26;;;;;;;9.73;8.77;;;23.20;59.60;;;;;;5053974;28;20405;-74
2021/06/01 08:53:55;;;;;;;26.90;22.80;;;23.20;54.50;;;;;;5054622;28;20614;-80
2021/06/01 08:56:21;;;;;;;6.73;6.23;;;23.30;58.10;;;;;;5053914;28;20461;-79
2021/06/01 08:58:49;;;;;;;4.00;3.73;;;23.50;58.30;;;;;;5054473;28;20460;-80
2021/06/01 09:01:19;;;;;;;5.53;5.23;;;23.50;54.60;;;;;;5053941;28;20408;-79
2021/06/01 09:03:49;;;;;;;8.83;8.33;;;23.60;52.90;;;;;;5054763;28;20437;-79
2021/06/01 09:06:23;;;;;;;9.10;7.60;;;23.70;56.10;;;;;;5053515;28;20420;-79
2021/06/01 09:22:51;;;;;;;4.97;4.67;;;23.70;51.40;;;;;;5053984;28;20765;-79
2021/06/01 09:28:14;;;;;;;5.10;4.80;;;23.80;50.00;;;;;;5053370;28;20397;-79
2021/06/01 09:30:46;;;;;;;4.63;4.23;;;23.90;51.30;;;;;;5053970;28;20408;-80
2021/06/01 09:33:15;;;;;;;5.30;5.00;;;24.00;52.20;;;;;;5052613;28;20428;-79
2021/06/01 09:35:52;;;;;;;5.17;4.87;;;24.10;52.20;;;;;;5035680;28;20412;-80
2021/06/01 09:38:29;;;;;;;4.67;4.30;;;24.10;51.00;;;;;;5052947;28;20530;-80
2021/06/01 09:41:08;;;;;;;6.20;5.80;;;24.10;51.90;;;;;;5053922;28;20507;-79
2021/06/01 09:43:35;;;;;;;5.03;4.73;;;24.20;51.30;;;;;;5053313;28;20943;-80
2021/06/01 09:46:19;;;;;;;7.10;6.50;;;24.40;51.00;;;;;;5053678;28;20424;-80
2021/06/01 09:48:45;;;;;;;6.70;6.40;;;24.60;52.10;;;;;;5035814;28;20427;-80
2021/06/01 09:51:13;;;;;;;4.90;4.50;;;24.80;52.70;;;;;;5053011;28;20450;-80
2021/06/01 09:53:38;;;;;;;71.10;51.07;;;24.90;53.70;;;;;;5053427;28;20423;-81
2021/06/01 09:56:04;;;;;;;23.00;20.70;;;25.10;52.20;;;;;;5035535;28;20420;-80
2021/06/01 09:58:35;;;;;;;7.60;7.00;;;25.10;52.70;;;;;;5052700;28;20550;-81
2021/06/01 10:01:06;;;;;;;5.50;5.00;;;25.10;55.40;;;;;;5053149;28;20550;-80
2021/06/01 10:03:45;;;;;;;6.23;5.90;;;25.10;51.80;;;;;;5035642;28;20487;-80
2021/06/01 10:06:11;;;;;;;8.00;7.40;;;25.10;50.30;;;;;;5052631;28;20412;-78
2021/06/01 10:08:54;;;;;;;7.60;7.10;;;25.20;53.10;;;;;;5053417;28;20471;-86
2021/06/01 10:11:20;;;;;;;10.67;9.97;;;25.40;53.00;;;;;;5052625;28;20837;-86
2021/06/01 10:13:46;;;;;;;8.90;8.30;;;25.50;53.30;;;;;;5035456;28;20496;-86
2021/06/01 10:16:15;;;;;;;6.50;6.00;;;25.60;54.10;;;;;;5034476;28;20225;-84
2021/06/01 10:18:42;;;;;;;5.10;4.80;;;25.70;52.30;;;;;;5053067;28;20210;-82
2021/06/01 10:21:19;;;;;;;7.30;6.90;;;25.70;48.60;;;;;;5052727;28;20423;-89
2021/06/01 10:23:48;;;;;;;7.30;6.80;;;25.60;49.30;;;;;;5051609;28;20466;-82
2021/06/01 10:26:15;;;;;;;6.77;6.30;;;25.70;52.50;;;;;;5052282;28;20404;-86
2021/06/01 10:28:44;;;;;;;5.50;5.20;;;25.60;50.90;;;;;;5052761;28;20412;-85
2021/06/01 10:31:13;;;;;;;6.00;5.70;;;25.30;51.20;;;;;;5051067;28;20447;-83
2021/06/01 10:33:43;;;;;;;5.70;5.30;;;25.40;51.50;;;;;;5053090;28;20418;-87
2021/06/01 10:48:43;;;;;;;11.43;10.37;;;25.30;50.80;;;;;;5048694;28;20440;-80
2021/06/01 10:50:46;;;;;;;16.80;15.30;;;25.30;50.80;;;;;;5051510;28;20419;-82
2021/06/01 10:53:21;;;;;;;9.87;8.90;;;25.40;52.30;;;;;;5052326;28;20793;-82
2021/06/01 10:55:50;;;;;;;7.20;6.80;;;25.60;53.90;;;;;;5052770;28;20486;-84
2021/06/01 10:58:20;;;;;;;9.17;8.43;;;25.60;48.50;;;;;;5051893;28;20460;-88
2021/06/01 11:03:20;;;;;;;5.13;4.73;;;25.40;51.00;;;;;;5052178;28;20554;-81
2021/06/01 11:05:56;;;;;;;4.63;4.43;;;25.40;49.90;;;;;;5052436;28;20166;-75
2021/06/01 11:08:35;;;;;;;6.97;6.50;;;25.50;50.50;;;;;;5051828;28;20419;-83
2021/06/01 11:11:23;;;;;;;7.90;6.50;;;25.80;52.50;;;;;;5052427;28;20424;-81
2021/06/01 11:13:53;;;;;;;6.87;6.20;;;26.10;52.10;;;;;;5052485;28;20774;-88
2021/06/01 11:16:19;;;;;;;7.00;6.50;;;26.20;50.20;;;;;;5051368;28;20464;-82
2021/06/01 11:18:53;;;;;;;5.20;4.70;;;26.30;50.50;;;;;;5052470;28;20459;-85
2021/06/01 11:21:36;;;;;;;5.60;5.20;;;26.20;48.30;;;;;;5051695;28;20244;-86
2021/06/01 11:35:35;;;;;;;6.10;5.13;;;26.00;50.10;;;;;;5051223;28;20420;-86
2021/06/01 11:38:16;;;;;;;5.57;5.27;;;25.90;49.70;;;;;;5034062;28;20466;-84
2021/06/01 11:43:20;;;;;;;16.93;15.33;;;26.10;51.30;;;;;;5051553;28;20392;-82
2021/06/01 11:51:12;;;;;;;7.60;7.10;;;25.90;50.90;;;;;;5052363;28;20404;-89
2021/06/01 11:54:04;;;;;;;7.50;7.00;;;25.80;52.30;;;;;;5052122;28;20438;-85
2021/06/01 12:02:10;;;;;;;8.70;7.93;;;25.50;52.80;;;;;;5037892;28;20764;-81
2021/06/01 12:20:59;;;;;;;6.60;6.20;;;25.60;54.50;;;;;;5055371;28;20408;-81
2021/06/01 12:23:27;;;;;;;6.27;5.87;;;25.60;54.60;;;;;;5054670;28;20459;-85
2021/06/01 12:32:04;;;;;;;6.47;5.97;;;25.80;54.30;;;;;;5055271;28;20486;-86
2021/06/01 13:20:45;;;;;;;6.33;6.00;;;26.80;54.80;;;;;;5038857;28;21006;-81
2021/06/01 13:32:10;;;;;;;4.93;4.63;;;26.80;53.20;;;;;;5053385;28;20393;-81
2021/06/01 13:40:29;;;;;;;4.80;4.50;;;26.40;50.40;;;;;;5053757;28;20427;-81
2021/06/01 13:49:01;;;;;;;5.20;4.80;;;26.50;50.50;;;;;;5019593;28;20506;-82
2021/06/01 13:56:45;;;;;;;4.90;4.70;;;26.70;49.80;;;;;;5052759;28;20400;-82
2021/06/01 13:59:25;;;;;;;5.53;5.17;;;26.80;51.30;;;;;;5053414;28;20420;-82
2021/06/01 14:37:45;;;;;;;5.10;4.80;;;26.10;48.80;;;;;;5052644;28;20444;-82
2021/06/01 16:29:34;;;;;;;6.43;6.07;;;23.70;53.30;;;;;;5054632;28;20405;-79
2021/06/01 16:30:04;;;;;;;7.37;6.77;;;23.70;54.10;;;;;;5055158;28;20900;-78
2021/06/01 16:43:28;;;;;;;6.20;5.90;;;23.30;54.20;;;;;;5055053;28;20476;-79
2021/06/01 17:05:19;;;;;;;6.00;5.60;;;23.10;54.50;;;;;;5051278;28;20404;-79
2021/06/01 17:13:07;;;;;;;5.77;5.57;;;23.00;54.90;;;;;;5045780;28;20412;-79
2021/06/01 17:15:34;;;;;;;6.40;6.00;;;23.00;54.90;;;;;;5051695;28;21005;-80
2021/06/01 17:18:12;;;;;;;5.70;5.40;;;23.00;54.70;;;;;;5053099;28;20481;-79
2021/06/01 17:37:01;;;;;;;4.90;4.70;;;22.80;54.80;;;;;;5024843;28;20226;-78
2021/06/01 17:39:27;;;;;;;5.73;5.43;;;22.80;54.60;;;;;;5053948;28;20478;-77
2021/06/01 17:41:55;;;;;;;5.63;5.33;;;22.80;54.60;;;;;;5052806;28;20428;-78
2021/06/01 17:44:27;;;;;;;4.20;4.00;;;22.80;55.00;;;;;;5053803;28;20408;-77
2021/06/01 17:47:01;;;;;;;4.80;4.60;;;22.80;54.30;;;;;;5035039;28;20765;-78
2021/06/01 17:49:29;;;;;;;5.53;5.23;;;22.80;54.20;;;;;;5053723;28;20406;-77
2021/06/01 17:52:00;;;;;;;5.23;4.90;;;22.80;54.40;;;;;;5052663;28;20780;-78
2021/06/01 17:54:31;;;;;;;6.07;5.77;;;22.80;54.60;;;;;;5053425;28;20427;-77
2021/06/01 17:56:57;;;;;;;7.00;5.70;;;22.70;54.30;;;;;;5052784;28;20409;-77
2021/06/01 17:59:25;;;;;;;5.20;4.77;;;22.70;54.50;;;;;;5053501;28;20450;-77
2021/06/01 18:01:52;;;;;;;5.63;5.33;;;22.70;54.40;;;;;;5052756;28;20409;-77
2021/06/01 18:04:20;;;;;;;6.03;5.60;;;22.70;54.50;;;;;;5053288;28;20922;-77
2021/06/01 19:12:06;;;;;;;7.00;6.60;;;22.30;56.20;;;;;;5012952;28;20502;-77
2021/06/01 19:25:19;;;;;;;190.43;169.73;;;22.20;58.00;;;;;;5052301;28;20416;-77
2021/06/01 19:50:16;;;;;;;9.00;8.40;;;22.00;61.70;;;;;;5052046;28;20400;-77
2021/06/01 19:52:45;;;;;;;8.97;8.40;;;21.90;62.10;;;;;;5051723;28;20412;-82
2021/06/01 19:55:12;;;;;;;6.63;6.23;;;21.70;61.20;;;;;;5052725;28;20408;-87
2021/06/01 19:57:38;;;;;;;6.77;6.37;;;21.60;61.30;;;;;;5052136;28;20554;-82
2021/06/01 20:00:07;;;;;;;6.50;6.10;;;21.40;60.20;;;;;;5034242;28;20462;-82
2021/06/01 20:02:36;;;;;;;12.80;11.50;;;21.50;60.10;;;;;;5051760;28;20440;-82
2021/06/01 20:05:08;;;;;;;67.07;52.07;;;21.40;60.00;;;;;;5051716;28;20416;-82
2021/06/01 20:07:33;;;;;;;8.23;7.57;;;21.40;61.50;;;;;;5052373;28;20418;-82
2021/06/01 20:10:00;;;;;;;6.80;6.30;;;21.30;62.40;;;;;;5051092;28;20405;-82
2021/06/01 20:12:27;;;;;;;7.20;6.80;;;21.30;61.30;;;;;;5051871;28;20603;-82
2021/06/01 20:14:53;;;;;;;7.23;6.83;;;21.30;61.10;;;;;;5052543;28;20420;-82
2021/06/01 20:17:29;;;;;;;6.67;6.27;;;21.30;62.60;;;;;;5055873;28;20486;-82
2021/06/01 20:19:58;;;;;;;8.80;5.40;;;21.40;65.10;;;;;;5056391;28;20399;-82
2021/06/01 20:22:25;;;;;;;6.27;5.97;;;21.30;65.50;;;;;;5055006;28;20425;-82
2021/06/01 20:24:53;;;;;;;5.60;5.30;;;21.30;65.30;;;;;;5036717;28;20416;-82